createdAt,value
2022-08-02T00:00:12.044Z,91.73
2022-08-02T00:02:38.782Z,90.97
2022-08-02T00:05:06.289Z,90.10
2022-08-02T00:07:37.566Z,91.93
2022-08-02T00:10:08.920Z,92.40
2022-08-02T00:12:35.941Z,91.53
2022-08-02T00:15:02.788Z,93.30
2022-08-02T00:17:29.442Z,90.97
2022-08-02T00:19:56.139Z,90.97
2022-08-02T00:22:22.908Z,90.47
2022-08-02T00:24:49.587Z,90.40
2022-08-02T00:27:16.243Z,90.80
2022-08-02T00:29:53.241Z,91.50
2022-08-02T00:32:20.998Z,91.80
2022-08-02T00:34:47.943Z,91.43
2022-08-02T00:37:15.196Z,91.18
2022-08-02T00:39:43.002Z,90.73
2022-08-02T00:42:10.284Z,93.00
2022-08-02T00:44:37.348Z,92.10
2022-08-02T00:47:04.062Z,90.78
2022-08-02T00:49:30.847Z,90.97
2022-08-02T00:52:00.217Z,91.65
2022-08-02T00:54:27.261Z,90.97
2022-08-02T00:56:53.952Z,92.70
2022-08-02T00:59:20.669Z,91.73
2022-08-02T01:01:55.968Z,91.30
2022-08-02T01:04:29.933Z,91.87
2022-08-02T01:07:12.072Z,91.30
2022-08-02T01:09:42.143Z,91.78
2022-08-02T01:12:09.516Z,91.43
2022-08-02T01:14:37.110Z,91.68
2022-08-02T01:17:27.668Z,91.03
2022-08-02T01:20:09.386Z,91.93
2022-08-02T01:23:01.104Z,91.97
2022-08-02T01:25:58.206Z,91.78
2022-08-02T01:28:40.568Z,91.38
2022-08-02T01:31:18.229Z,93.27
2022-08-02T01:33:54.129Z,91.63
2022-08-02T01:36:23.257Z,93.55
2022-08-02T01:38:53.352Z,92.22
2022-08-02T01:41:24.276Z,95.28
2022-08-02T01:43:55.515Z,92.40
2022-08-02T01:46:23.053Z,93.38
2022-08-02T01:48:50.861Z,92.55
2022-08-02T01:51:20.304Z,91.97
2022-08-02T01:53:51.261Z,91.85
2022-08-02T01:56:19.489Z,92.40
2022-08-02T01:58:48.006Z,95.28
2022-08-02T02:01:18.347Z,92.93
2022-08-02T02:03:47.992Z,92.57
2022-08-02T02:06:16.209Z,92.60
2022-08-02T02:08:44.517Z,95.63
2022-08-02T02:12:05.181Z,92.60
2022-08-02T02:14:00.788Z,93.40
2022-08-02T02:16:28.539Z,92.65
2022-08-02T02:18:55.689Z,93.60
2022-08-02T02:21:22.569Z,92.20
2022-08-02T02:23:50.749Z,95.47
2022-08-02T02:26:29.355Z,92.72
2022-08-02T02:29:02.022Z,92.07
2022-08-02T02:31:34.372Z,92.70
2022-08-02T02:34:10.398Z,93.55
2022-08-02T02:36:39.862Z,93.05
2022-08-02T02:39:13.266Z,93.60
2022-08-02T02:41:42.295Z,94.80
2022-08-02T02:44:13.319Z,92.57
2022-08-02T02:46:40.911Z,94.20
2022-08-02T02:49:11.046Z,92.90
2022-08-02T02:51:41.375Z,92.80
2022-08-02T02:54:32.008Z,93.07
2022-08-02T02:56:59.306Z,92.78
2022-08-02T02:59:26.365Z,94.65
2022-08-02T03:01:55.327Z,92.63
2022-08-02T03:04:25.233Z,92.88
2022-08-02T03:06:51.984Z,93.30
2022-08-02T03:09:18.672Z,93.57
2022-08-02T03:11:45.915Z,93.07
2022-08-02T03:14:13.263Z,93.93
2022-08-02T03:16:44.087Z,93.05
2022-08-02T03:19:10.875Z,93.05
2022-08-02T03:21:37.891Z,94.43
2022-08-02T03:24:05.242Z,94.80
2022-08-02T03:26:31.977Z,92.93
2022-08-02T03:28:58.658Z,92.75
2022-08-02T03:31:25.403Z,95.30
2022-08-02T03:33:53.344Z,94.00
2022-08-02T03:36:22.696Z,93.43
2022-08-02T03:38:51.315Z,97.22
2022-08-02T03:41:20.250Z,93.63
2022-08-02T03:43:48.425Z,93.43
2022-08-02T03:46:17.674Z,93.90
2022-08-02T03:48:44.663Z,96.68
2022-08-02T03:51:12.010Z,94.13
2022-08-02T03:53:39.253Z,93.53
2022-08-02T03:56:07.057Z,94.75
2022-08-02T03:58:34.353Z,99.05
2022-08-02T04:01:01.174Z,93.70
2022-08-02T04:03:27.905Z,95.10
2022-08-02T04:06:01.067Z,95.03
2022-08-02T04:08:35.310Z,101.97
2022-08-02T04:11:23.234Z,94.43
2022-08-02T04:13:50.062Z,96.60
2022-08-02T04:16:21.482Z,96.65
2022-08-02T04:18:57.885Z,93.82
2022-08-02T04:21:48.729Z,97.07
2022-08-02T04:24:18.937Z,94.47
2022-08-02T04:26:48.058Z,94.60
2022-08-02T04:29:18.196Z,93.68
2022-08-02T04:31:45.639Z,94.05
2022-08-02T04:34:15.446Z,94.13
2022-08-02T04:36:42.564Z,95.38
2022-08-02T04:39:09.291Z,94.68
2022-08-02T04:41:44.465Z,94.82
2022-08-02T04:44:12.527Z,95.05
2022-08-02T04:46:40.204Z,94.80
2022-08-02T04:49:07.320Z,94.22
2022-08-02T04:51:41.328Z,95.22
2022-08-02T04:54:10.413Z,96.13
2022-08-02T04:56:40.852Z,104.32
2022-08-02T04:59:07.984Z,94.45
2022-08-02T05:01:35.831Z,93.97
2022-08-02T05:04:03.211Z,93.93
2022-08-02T05:06:29.924Z,95.00
2022-08-02T05:08:56.871Z,94.88
2022-08-02T05:11:29.990Z,95.28
2022-08-02T05:14:04.370Z,95.35
2022-08-02T05:16:32.197Z,94.57
2022-08-02T05:19:01.082Z,94.65
2022-08-02T05:21:28.658Z,97.90
2022-08-02T05:23:55.318Z,95.00
2022-08-02T05:26:22.042Z,94.13
2022-08-02T05:28:48.797Z,96.82
2022-08-02T05:31:15.494Z,93.82
2022-08-02T05:33:42.146Z,93.43
2022-08-02T05:36:09.600Z,94.57
2022-08-02T05:38:37.768Z,95.13
2022-08-02T05:41:05.591Z,95.07
2022-08-02T05:43:32.757Z,94.85
2022-08-02T05:45:59.918Z,94.78
2022-08-02T05:48:31.656Z,93.68
2022-08-02T05:51:11.011Z,93.72
2022-08-02T05:53:51.587Z,94.38
2022-08-02T05:56:25.161Z,95.47
2022-08-02T05:59:12.924Z,94.15
2022-08-02T06:01:42.947Z,92.40
2022-08-02T06:04:16.496Z,93.63
2022-08-02T06:06:44.350Z,92.32
2022-08-02T06:09:23.157Z,92.22
2022-08-02T06:12:02.060Z,92.47
2022-08-02T06:14:33.201Z,93.00
2022-08-02T06:17:04.189Z,90.77
2022-08-02T06:19:50.954Z,90.07
2022-08-02T06:22:33.203Z,89.30
2022-08-02T06:25:03.912Z,90.22
2022-08-02T06:27:30.773Z,89.97
2022-08-02T06:29:58.287Z,89.90
2022-08-02T06:32:27.777Z,90.37
2022-08-02T06:34:54.596Z,87.70
2022-08-02T06:37:35.444Z,87.70
2022-08-02T06:40:07.937Z,87.30
2022-08-02T06:42:51.684Z,88.40
2022-08-02T06:45:18.506Z,90.07
2022-08-02T06:47:45.513Z,86.57
2022-08-02T06:50:12.281Z,86.17
2022-08-02T06:52:39.087Z,85.57
2022-08-02T06:55:06.664Z,85.37
2022-08-02T06:57:33.935Z,84.17
2022-08-02T07:00:02.542Z,81.90
2022-08-02T07:02:30.795Z,81.27
2022-08-02T07:04:57.698Z,80.67
2022-08-02T07:07:24.543Z,79.50
2022-08-02T07:09:56.587Z,78.37
2022-08-02T07:12:32.329Z,78.70
2022-08-02T07:15:05.440Z,79.33
2022-08-02T07:17:32.474Z,77.57
2022-08-02T07:20:00.155Z,77.50
2022-08-02T07:22:28.075Z,83.00
2022-08-02T07:24:59.850Z,78.60
2022-08-02T07:27:27.189Z,77.50
2022-08-02T07:29:54.353Z,77.47
2022-08-02T07:32:25.650Z,77.97
2022-08-02T07:34:54.184Z,77.90
2022-08-02T07:37:53.238Z,79.10
2022-08-02T07:40:19.857Z,80.33
2022-08-02T07:42:49.822Z,79.77
2022-08-02T07:45:16.566Z,80.60
2022-08-02T07:47:44.850Z,80.30
2022-08-02T07:50:14.199Z,79.70
2022-08-02T07:52:41.775Z,83.27
2022-08-02T07:55:10.289Z,81.90
2022-08-02T07:57:38.701Z,81.80
2022-08-02T08:00:11.679Z,80.50
2022-08-02T08:02:39.328Z,81.60
2022-08-02T08:05:07.006Z,81.17
2022-08-02T08:07:34.954Z,81.50
2022-08-02T08:10:02.358Z,81.77
2022-08-02T08:12:29.134Z,81.70
2022-08-02T08:14:55.820Z,81.83
2022-08-02T08:17:23.223Z,80.80
2022-08-02T08:19:51.130Z,80.87
2022-08-02T08:22:21.999Z,87.50
2022-08-02T08:24:49.457Z,82.10
2022-08-02T08:27:22.403Z,81.50
2022-08-02T08:29:49.853Z,81.10
2022-08-02T08:32:17.521Z,81.80
2022-08-02T08:34:45.904Z,80.40
2022-08-02T08:37:17.118Z,79.73
2022-08-02T08:39:56.689Z,83.60
2022-08-02T08:42:27.184Z,80.27
2022-08-02T08:44:56.310Z,80.23
2022-08-02T08:47:24.121Z,80.20
2022-08-02T08:49:54.893Z,81.17
2022-08-02T08:52:25.607Z,79.70
2022-08-02T08:54:52.986Z,79.90
2022-08-02T08:57:21.295Z,79.40
2022-08-02T08:59:48.038Z,79.87
2022-08-02T09:02:19.658Z,79.67
2022-08-02T09:04:54.433Z,79.30
2022-08-02T09:07:22.464Z,80.20
2022-08-02T09:09:49.156Z,79.07
2022-08-02T09:12:22.266Z,82.10
2022-08-02T09:14:50.427Z,79.33
2022-08-02T09:17:18.468Z,79.30
2022-08-02T09:19:46.004Z,78.73
2022-08-02T09:22:15.895Z,80.37
2022-08-02T09:24:45.521Z,79.10
2022-08-02T09:27:17.543Z,80.07
2022-08-02T09:30:12.345Z,78.77
2022-08-02T09:32:49.925Z,79.40
2022-08-02T09:36:05.799Z,80.10
2022-08-02T09:38:25.961Z,77.70
2022-08-02T09:40:53.110Z,78.90
2022-08-02T09:43:20.836Z,79.40
2022-08-02T09:45:47.562Z,81.13
2022-08-02T09:48:14.262Z,79.50
2022-08-02T09:50:42.723Z,80.17
2022-08-02T09:53:13.890Z,80.27
2022-08-02T09:55:42.099Z,79.57
2022-08-02T09:58:20.120Z,78.77
2022-08-02T10:00:58.895Z,79.10
2022-08-02T10:03:34.770Z,78.53
2022-08-02T10:06:03.185Z,79.80
2022-08-02T10:08:33.054Z,77.60
2022-08-02T10:11:01.789Z,82.80
2022-08-02T10:13:35.259Z,78.40
2022-08-02T10:16:03.608Z,79.27
2022-08-02T10:18:45.642Z,78.53
2022-08-02T10:21:36.858Z,79.27
2022-08-02T10:24:09.944Z,79.17
2022-08-02T10:26:42.455Z,77.60
2022-08-02T10:29:10.303Z,77.67
2022-08-02T10:31:47.149Z,77.47
2022-08-02T10:34:18.517Z,77.07
2022-08-02T10:36:46.216Z,77.40
2022-08-02T10:39:13.335Z,80.07
2022-08-02T10:41:40.905Z,78.47
2022-08-02T10:44:07.890Z,75.70
2022-08-02T10:46:52.442Z,75.60
2022-08-02T10:52:08.942Z,79.20
2022-08-02T10:54:59.069Z,76.53
2022-08-02T10:57:31.722Z,76.67
2022-08-02T11:00:03.947Z,77.90
2022-08-02T11:02:39.991Z,76.00
2022-08-02T11:05:18.553Z,75.90
2022-08-02T11:07:49.587Z,74.87
2022-08-02T11:10:33.872Z,76.67
2022-08-02T11:13:00.487Z,75.67
2022-08-02T11:15:28.518Z,76.13
2022-08-02T11:17:58.874Z,78.50
2022-08-02T11:20:27.781Z,77.50
2022-08-02T11:22:55.674Z,76.40
2022-08-02T11:25:22.326Z,76.20
2022-08-02T11:27:57.158Z,75.87
2022-08-02T11:30:26.610Z,76.10
2022-08-02T11:33:00.875Z,76.67
2022-08-02T11:35:38.753Z,77.57
2022-08-02T11:38:19.437Z,75.93
2022-08-02T11:40:47.358Z,76.00
2022-08-02T11:43:24.753Z,75.97
2022-08-02T11:45:53.274Z,77.90
2022-08-02T11:48:38.873Z,76.07
2022-08-02T11:51:11.202Z,76.80
2022-08-02T11:53:52.023Z,75.07
2022-08-02T11:56:27.522Z,75.07
2022-08-02T11:59:09.352Z,75.97
2022-08-02T12:01:45.734Z,79.40
2022-08-02T12:04:17.421Z,75.67
2022-08-02T12:06:53.310Z,76.70
2022-08-02T12:09:20.105Z,77.57
2022-08-02T12:11:50.938Z,75.90
2022-08-02T12:14:20.916Z,76.47
2022-08-02T12:17:07.613Z,75.70
2022-08-02T12:19:36.805Z,75.30
2022-08-02T12:22:14.011Z,75.87
2022-08-02T12:24:44.155Z,74.97
2022-08-02T12:27:27.107Z,75.27
2022-08-02T12:30:00.399Z,75.57
2022-08-02T12:32:27.241Z,76.20
2022-08-02T12:35:09.415Z,77.07
2022-08-02T12:37:39.955Z,76.47
2022-08-02T12:40:26.192Z,76.57
2022-08-02T12:42:58.689Z,76.40
2022-08-02T12:45:27.389Z,76.27
2022-08-02T12:48:09.245Z,76.17
2022-08-02T12:50:39.743Z,75.67
2022-08-02T12:53:15.654Z,76.30
2022-08-02T12:56:01.905Z,76.97
2022-08-02T12:58:31.386Z,76.97
2022-08-02T13:01:00.352Z,76.60
2022-08-02T13:04:11.628Z,75.90
2022-08-02T13:09:01.362Z,77.83
2022-08-02T13:11:28.369Z,78.43
2022-08-02T13:13:55.915Z,76.30
2022-08-02T13:16:31.130Z,78.67
2022-08-02T13:18:58.335Z,76.57
2022-08-02T13:21:41.656Z,75.70
2022-08-02T13:24:32.710Z,77.13
2022-08-02T13:27:07.892Z,75.57
2022-08-02T13:29:38.901Z,74.90
2022-08-02T13:32:06.033Z,75.30
2022-08-02T13:34:32.758Z,76.57
2022-08-02T13:36:59.477Z,76.13
2022-08-02T13:39:26.185Z,76.40
2022-08-02T13:41:53.038Z,75.10
2022-08-02T13:44:19.825Z,78.50
2022-08-02T13:46:46.587Z,75.10
2022-08-02T13:49:19.036Z,76.70
2022-08-02T13:51:47.408Z,76.03
2022-08-02T13:54:14.903Z,77.40
2022-08-02T13:56:41.756Z,76.90
2022-08-02T13:59:53.869Z,77.07
2022-08-02T14:01:56.613Z,77.30
2022-08-02T14:04:23.780Z,77.33
2022-08-02T14:06:50.947Z,77.30
2022-08-02T14:09:18.067Z,78.07
2022-08-02T14:11:46.071Z,78.40
2022-08-02T14:14:16.686Z,77.40
2022-08-02T14:16:46.816Z,79.40
2022-08-02T14:19:16.671Z,77.87
2022-08-02T14:21:47.968Z,78.57
2022-08-02T14:24:16.584Z,79.37
2022-08-02T14:26:43.683Z,78.73
2022-08-02T14:29:10.418Z,77.73
2022-08-02T14:31:43.262Z,79.57
2022-08-02T14:34:11.146Z,78.80
2022-08-02T14:36:38.813Z,78.27
2022-08-02T14:39:05.918Z,82.20
2022-08-02T14:41:54.670Z,78.67
2022-08-02T14:44:20.520Z,78.20
2022-08-02T14:46:47.305Z,78.50
2022-08-02T14:49:25.768Z,78.10
2022-08-02T14:51:54.467Z,78.80
2022-08-02T14:54:30.103Z,78.00
2022-08-02T14:57:02.345Z,78.40
2022-08-02T14:59:30.121Z,78.10
2022-08-02T15:01:57.080Z,81.67
2022-08-02T15:04:23.891Z,78.50
2022-08-02T15:06:51.013Z,77.90
2022-08-02T15:09:17.794Z,78.07
2022-08-02T15:11:47.384Z,77.97
2022-08-02T15:14:15.694Z,78.10
2022-08-02T15:16:56.114Z,79.97
2022-08-02T15:19:25.899Z,78.33
2022-08-02T15:22:07.958Z,78.00
2022-08-02T15:24:34.695Z,77.97
2022-08-02T15:27:01.368Z,77.60
2022-08-02T15:29:28.149Z,78.27
2022-08-02T15:31:54.817Z,78.60
2022-08-02T15:34:21.458Z,79.50
2022-08-02T15:36:48.107Z,79.20
2022-08-02T15:39:14.771Z,78.60
2022-08-02T15:41:41.525Z,78.33
2022-08-02T15:44:09.501Z,78.90
2022-08-02T15:46:37.729Z,79.77
2022-08-02T15:49:04.656Z,80.57
2022-08-02T15:51:31.430Z,80.53
2022-08-02T15:53:58.124Z,79.33
2022-08-02T15:56:24.783Z,80.67
2022-08-02T15:58:53.008Z,79.37
2022-08-02T16:01:23.769Z,85.40
2022-08-02T16:03:50.584Z,79.97
2022-08-02T16:06:17.359Z,79.37
2022-08-02T16:08:51.703Z,79.60
2022-08-02T16:11:20.791Z,80.10
2022-08-02T16:13:53.263Z,82.10
2022-08-02T16:16:25.900Z,79.20
2022-08-02T16:18:52.634Z,79.50
2022-08-02T16:21:19.418Z,81.63
2022-08-02T16:24:01.109Z,79.20
2022-08-02T16:26:30.407Z,80.17
2022-08-02T16:28:58.522Z,80.00
2022-08-02T16:31:25.217Z,79.30
2022-08-02T16:33:56.251Z,79.10
2022-08-02T16:36:27.265Z,80.47
2022-08-02T16:38:55.263Z,79.60
2022-08-02T16:41:22.954Z,79.40
2022-08-02T16:43:50.084Z,79.00
2022-08-02T16:46:16.967Z,79.87
2022-08-02T16:48:51.171Z,79.53
2022-08-02T16:51:18.697Z,79.67
2022-08-02T16:54:00.212Z,81.00
2022-08-02T16:56:28.904Z,80.20
2022-08-02T16:58:59.707Z,80.33
2022-08-02T17:02:01.697Z,79.67
2022-08-02T17:04:14.504Z,79.27
2022-08-02T17:06:47.421Z,79.30
2022-08-02T17:10:02.388Z,79.37
2022-08-02T17:12:07.622Z,81.27
2022-08-02T17:14:54.513Z,78.97
2022-08-02T17:17:21.445Z,84.20
2022-08-02T17:19:48.186Z,79.70
2022-08-02T17:22:15.745Z,81.57
2022-08-02T17:24:44.755Z,80.47
2022-08-02T17:27:17.098Z,80.50
2022-08-02T17:29:43.859Z,82.00
2022-08-02T17:32:14.666Z,81.07
2022-08-02T17:34:48.960Z,82.80
2022-08-02T17:37:23.512Z,82.17
2022-08-02T17:39:51.840Z,82.30
2022-08-02T17:42:36.867Z,81.07
2022-08-02T17:45:16.405Z,81.67
2022-08-02T17:48:04.422Z,80.77
2022-08-02T17:50:33.793Z,81.07
2022-08-02T17:53:01.014Z,81.10
2022-08-02T17:55:31.176Z,82.37
2022-08-02T17:57:59.454Z,81.97
2022-08-02T18:00:34.358Z,82.07
2022-08-02T18:03:05.674Z,82.20
2022-08-02T18:05:39.408Z,82.90
2022-08-02T18:08:09.284Z,81.00
2022-08-02T18:10:35.991Z,80.37
2022-08-02T18:13:03.582Z,83.47
2022-08-02T18:15:32.581Z,85.40
2022-08-02T18:18:00.127Z,82.27
2022-08-02T18:20:26.820Z,81.70
2022-08-02T18:22:55.475Z,83.50
2022-08-02T18:25:37.193Z,83.50
2022-08-02T18:28:11.470Z,85.33
2022-08-02T18:30:38.200Z,83.47
2022-08-02T18:33:58.269Z,84.30
2022-08-02T18:35:55.671Z,86.10
2022-08-02T18:38:23.265Z,86.90
2022-08-02T18:40:50.977Z,84.67
2022-08-02T18:43:18.637Z,85.50
2022-08-02T18:46:05.952Z,83.60
2022-08-02T18:48:34.563Z,87.67
2022-08-02T18:51:03.057Z,83.90
2022-08-02T18:53:41.338Z,84.30
2022-08-02T18:56:19.829Z,84.37
2022-08-02T18:58:52.323Z,84.63
2022-08-02T19:01:21.828Z,88.50
2022-08-02T19:04:00.301Z,85.57
2022-08-02T19:06:27.695Z,86.07
2022-08-02T19:08:59.672Z,85.10
2022-08-02T19:11:37.046Z,86.30
2022-08-02T19:14:04.140Z,88.30
2022-08-02T19:16:37.537Z,85.60
2022-08-02T19:19:06.164Z,85.67
2022-08-02T19:22:16.339Z,85.00
2022-08-02T19:24:20.147Z,85.67
2022-08-02T19:26:51.629Z,85.60
2022-08-02T19:29:25.178Z,88.27
2022-08-02T19:32:40.239Z,86.90
2022-08-02T19:34:53.712Z,85.30
2022-08-02T19:37:20.701Z,89.27
2022-08-02T19:39:47.643Z,87.70
2022-08-02T19:42:14.875Z,86.10
2022-08-02T19:44:45.045Z,86.80
2022-08-02T19:47:13.007Z,85.57
2022-08-02T19:49:46.444Z,85.97
2022-08-02T19:52:21.671Z,86.10
2022-08-02T19:54:55.637Z,89.23
2022-08-02T19:57:25.004Z,87.47
2022-08-02T19:59:52.698Z,85.97
2022-08-02T20:02:21.133Z,87.87
2022-08-02T20:04:50.092Z,95.33
2022-08-02T20:07:48.217Z,87.23
2022-08-02T20:10:04.425Z,86.47
2022-08-02T20:15:18.264Z,86.90
2022-08-02T20:17:47.585Z,89.00
2022-08-02T20:20:16.838Z,86.67
2022-08-02T20:23:32.861Z,87.80
2022-08-02T20:25:50.404Z,88.20
2022-08-02T20:28:22.105Z,90.47
2022-08-02T20:30:49.661Z,92.33
2022-08-02T20:33:21.642Z,89.10
2022-08-02T20:35:49.411Z,90.10
2022-08-02T20:38:16.449Z,90.20
2022-08-02T20:40:43.413Z,89.50
2022-08-02T20:43:10.597Z,91.77
2022-08-02T20:45:37.259Z,88.00
2022-08-02T20:48:04.258Z,90.67
2022-08-02T20:50:49.153Z,87.80
2022-08-02T20:53:23.926Z,87.77
2022-08-02T20:55:53.691Z,88.10
2022-08-02T20:58:20.550Z,88.97
2022-08-02T21:00:58.594Z,87.80
2022-08-02T21:03:32.361Z,87.90
2022-08-02T21:06:09.933Z,88.80
2022-08-02T21:08:38.245Z,91.20
2022-08-02T21:11:09.380Z,91.50
2022-08-02T21:13:46.486Z,90.10
2022-08-02T21:16:18.294Z,91.23
2022-08-02T21:19:01.198Z,89.53
2022-08-02T21:21:29.641Z,89.43
2022-08-02T21:23:56.993Z,91.57
2022-08-02T21:26:28.431Z,89.97
2022-08-02T21:28:57.976Z,92.23
2022-08-02T21:31:29.984Z,90.53
2022-08-02T21:34:00.275Z,89.77
2022-08-02T21:36:30.997Z,90.70
2022-08-02T21:38:59.701Z,90.10
2022-08-02T21:41:39.517Z,91.13
2022-08-02T21:44:13.501Z,89.90
2022-08-02T21:46:44.277Z,92.93
2022-08-02T21:49:13.233Z,89.20
2022-08-02T21:51:42.766Z,89.90
2022-08-02T21:54:18.008Z,91.07
2022-08-02T21:56:57.120Z,92.20
2022-08-02T21:59:26.713Z,92.17
2022-08-02T22:01:57.708Z,94.33
2022-08-02T22:04:26.271Z,91.80
2022-08-02T22:06:55.023Z,92.60
2022-08-02T22:09:43.475Z,89.20
2022-08-02T22:12:17.065Z,93.03
2022-08-02T22:14:49.640Z,90.27
2022-08-02T22:17:21.593Z,89.23
2022-08-02T22:20:08.951Z,89.73
2022-08-02T22:22:39.106Z,90.00
2022-08-02T22:25:06.290Z,91.97
2022-08-02T22:28:15.768Z,89.40
2022-08-02T22:30:23.652Z,89.77
2022-08-02T22:33:14.932Z,89.63
2022-08-02T22:35:42.195Z,90.47
2022-08-02T22:38:16.609Z,91.70
2022-08-02T22:40:48.253Z,91.30
2022-08-02T22:43:15.907Z,92.80
2022-08-02T22:45:50.237Z,91.57
2022-08-02T22:48:17.068Z,91.70
2022-08-02T22:50:43.763Z,91.27
2022-08-02T22:53:10.583Z,91.10
2022-08-02T22:55:41.597Z,92.50
2022-08-02T22:58:09.204Z,94.17
2022-08-02T22:58:54.799Z,86.90
2022-08-02T23:00:35.896Z,95.40
2022-08-02T23:03:02.851Z,92.20
2022-08-02T23:05:30.395Z,89.97
2022-08-02T23:07:57.063Z,94.63
2022-08-02T23:10:24.219Z,91.20
2022-08-02T23:12:51.050Z,96.83
2022-08-02T23:15:17.726Z,92.43
2022-08-02T23:18:02.856Z,90.77
2022-08-02T23:20:29.606Z,92.40
2022-08-02T23:22:56.254Z,91.60
2022-08-02T23:25:23.081Z,98.70
2022-08-02T23:27:51.151Z,91.63
2022-08-02T23:30:19.087Z,95.57
2022-08-02T23:32:47.030Z,93.10
2022-08-02T23:35:16.650Z,96.63
2022-08-02T23:37:59.131Z,92.60
2022-08-02T23:40:39.135Z,92.20
2022-08-02T23:43:13.352Z,93.80
2022-08-02T23:45:46.168Z,92.47
2022-08-02T23:48:13.266Z,93.50
2022-08-02T23:50:39.982Z,94.30
2022-08-02T23:53:06.721Z,93.70
2022-08-02T23:55:33.424Z,93.20
2022-08-02T23:58:00.182Z,94.77
